Terminal Aerodrome Forecast
Issued by NWS Mobile, AL

Home | Current Version | Previous Version | Text Only | Print | Product List | Glossary On
Versions: 1 2 3 4 5 6 7 8 9 10 11 12 13 14 15 16 17
000
FTUS44 KMOB 242300
TAFPNS
TAF
KPNS 242320Z 2500/2524 19013KT P6SM BKN200
     FM250900 20006KT 4SM BR OVC007
      TEMPO 2510/2513 1/2SM FG VV001
     FM251500 27007KT P6SM OVC015=

USA.gov is the U.S. government's official web portal to all federal, state and local government web resources and services.